Orbital elements of FENGYUN 1C DEB
| Launched | 9 May 1999 |
| Flight ended | – |
| Launch site | Taiyuan Space Center, PRC |
| Owner | People's Republic of China |
| NORAD ID | 30714 |
| Date fetched |
Epoch osculation |
Inc. [°] |
Ecc. | RA asc node [hr] |
Arg Peri. [°] |
Mean anom [°] |
Mean motion [rev/day] |
Abs. mag |
| Date fetched |
Epoch osculation |
Inc. [°] |
Ecc. | RA asc node [hr] |
Arg Peri. [°] |
Mean anom [°] |
Mean motion [rev/day] |
Abs. mag |
| 2026 May 05 17:57 | 2026 May 05 08:45:13 | 98.8161 | 0.00651 | 11.6446 | 241.4190 | 250.8138 | 14.03549 | – |
| 2026 May 04 17:57 | 2026 Apr 30 08:38:42 | 98.8163 | 0.00649 | 11.3210 | 255.5930 | 250.8138 | 14.03549 | – |
| 2026 May 03 17:57 | 2026 Apr 30 08:38:42 | 98.8163 | 0.00649 | 11.3210 | 255.5930 | 250.8138 | 14.03549 | – |
| 2026 May 02 17:57 | 2026 Apr 30 08:38:42 | 98.8163 | 0.00649 | 11.3210 | 255.5930 | 250.8138 | 14.03549 | – |
| 2026 May 01 17:56 | 2026 Apr 30 08:38:42 | 98.8163 | 0.00649 | 11.3210 | 255.5930 | 250.8138 | 14.03549 | – |
| 2026 Apr 30 17:56 | 2026 Apr 30 08:38:42 | 98.8163 | 0.00649 | 11.3210 | 255.5930 | 250.8138 | 14.03549 | – |
| 2026 Apr 29 17:57 | 2026 Apr 24 09:16:11 | 98.8167 | 0.00647 | 10.9348 | 272.6036 | 250.8138 | 14.03549 | – |
| 2026 Apr 28 17:56 | 2026 Apr 24 09:16:11 | 98.8167 | 0.00647 | 10.9348 | 272.6036 | 250.8138 | 14.03549 | – |
| 2026 Apr 27 17:58 | 2026 Apr 24 09:16:11 | 98.8167 | 0.00647 | 10.9348 | 272.6036 | 250.8138 | 14.03549 | – |
| 2026 Apr 26 17:58 | 2026 Apr 24 09:16:11 | 98.8167 | 0.00647 | 10.9348 | 272.6036 | 250.8138 | 14.03549 | – |
| 2026 Apr 25 17:58 | 2026 Apr 24 09:16:11 | 98.8167 | 0.00647 | 10.9348 | 272.6036 | 250.8138 | 14.03549 | – |
| 2026 Apr 24 17:59 | 2026 Apr 24 09:16:11 | 98.8167 | 0.00647 | 10.9348 | 272.6036 | 250.8138 | 14.03549 | – |
| 2026 Apr 23 17:57 | 2026 Apr 19 09:27:40 | 98.8172 | 0.00646 | 10.6120 | 286.8859 | 250.8138 | 14.03549 | – |
| 2026 Apr 22 17:57 | 2026 Apr 19 09:27:40 | 98.8172 | 0.00646 | 10.6120 | 286.8859 | 250.8138 | 14.03549 | – |
| 2026 Apr 21 17:57 | 2026 Apr 19 09:27:40 | 98.8172 | 0.00646 | 10.6120 | 286.8859 | 250.8138 | 14.03549 | – |
| 2026 Apr 20 17:57 | 2026 Apr 19 09:27:40 | 98.8172 | 0.00646 | 10.6120 | 286.8859 | 250.8138 | 14.03549 | – |
| 2026 Apr 19 17:58 | 2026 Apr 19 09:27:40 | 98.8172 | 0.00646 | 10.6120 | 286.8859 | 250.8138 | 14.03549 | – |
| 2026 Apr 18 17:56 | 2026 Apr 13 02:27:04 | 98.8184 | 0.00646 | 10.2051 | 304.9108 | 250.8138 | 14.03549 | – |
| 2026 Apr 16 17:57 | 2026 Apr 13 02:27:04 | 98.8184 | 0.00646 | 10.2051 | 304.9108 | 250.8138 | 14.03549 | – |
| 2026 Apr 14 17:57 | 2026 Apr 13 02:27:04 | 98.8184 | 0.00646 | 10.2051 | 304.9108 | 250.8138 | 14.03549 | – |
| 2026 Apr 13 17:57 | 2026 Apr 13 02:27:04 | 98.8184 | 0.00646 | 10.2051 | 304.9108 | 250.8138 | 14.03549 | – |
| 2026 Apr 12 17:57 | 2026 Apr 08 09:26:46 | 98.8192 | 0.00647 | 9.9006 | 318.3238 | 250.8138 | 14.03549 | – |
| 2026 Apr 11 17:57 | 2026 Apr 08 09:26:46 | 98.8192 | 0.00647 | 9.9006 | 318.3238 | 250.8138 | 14.03549 | – |
| 2026 Apr 10 17:58 | 2026 Apr 08 09:26:46 | 98.8192 | 0.00647 | 9.9006 | 318.3238 | 250.8138 | 14.03549 | – |
| 2026 Apr 09 18:01 | 2026 Apr 08 09:26:46 | 98.8192 | 0.00647 | 9.9006 | 318.3238 | 250.8138 | 14.03549 | – |
| 2026 Apr 08 17:57 | 2026 Apr 08 09:26:46 | 98.8192 | 0.00647 | 9.9006 | 318.3238 | 250.8138 | 14.03549 | – |